createdAt,value
2022-09-25T00:02:59.548Z,8.63
2022-09-25T00:06:05.230Z,9.37
2022-09-25T00:09:10.182Z,8.63
2022-09-25T00:12:13.407Z,9.60
2022-09-25T00:15:16.501Z,9.20
2022-09-25T00:18:42.345Z,9.67
2022-09-25T00:21:44.750Z,9.20
2022-09-25T00:24:47.689Z,9.60
2022-09-25T00:27:54.656Z,9.97
2022-09-25T00:30:57.449Z,10.13
2022-09-25T00:34:03.592Z,10.53
2022-09-25T00:37:07.432Z,10.40
2022-09-25T00:40:11.284Z,11.23
2022-09-25T00:43:15.908Z,11.73
2022-09-25T00:46:23.832Z,11.50
2022-09-25T00:49:28.304Z,10.73
2022-09-25T00:52:32.884Z,10.63
2022-09-25T00:55:39.851Z,10.33
2022-09-25T00:58:43.331Z,9.87
2022-09-25T01:01:46.877Z,11.00
2022-09-25T01:04:52.591Z,11.27
2022-09-25T01:07:58.433Z,11.00
2022-09-25T01:11:02.106Z,10.17
2022-09-25T01:14:07.168Z,12.50
2022-09-25T01:17:19.294Z,14.13
2022-09-25T01:20:39.562Z,14.13
2022-09-25T01:24:21.174Z,13.37
2022-09-25T01:27:35.362Z,13.67
2022-09-25T01:30:43.773Z,12.00
2022-09-25T01:33:51.723Z,13.37
2022-09-25T01:36:59.905Z,11.77
2022-09-25T01:40:09.180Z,12.37
2022-09-25T01:43:16.801Z,11.70
2022-09-25T01:46:23.183Z,11.43
2022-09-25T01:49:31.803Z,13.03
2022-09-25T01:52:40.097Z,15.77
2022-09-25T01:55:49.097Z,10.63
2022-09-25T01:58:56.588Z,16.20
2022-09-25T02:02:04.480Z,9.03
2022-09-25T02:05:13.413Z,9.57
2022-09-25T02:08:22.162Z,9.90
2022-09-25T02:11:30.929Z,11.97
2022-09-25T02:14:36.944Z,12.67
2022-09-25T02:18:03.705Z,11.53
2022-09-25T02:21:15.375Z,11.70
2022-09-25T02:24:21.933Z,11.73
2022-09-25T02:27:27.873Z,12.17
2022-09-25T02:30:31.041Z,12.90
2022-09-25T02:33:35.949Z,11.43
2022-09-25T02:36:38.723Z,12.37
2022-09-25T02:39:43.404Z,10.90
2022-09-25T02:42:51.466Z,9.90
2022-09-25T02:46:05.490Z,9.57
2022-09-25T02:49:23.551Z,9.83
2022-09-25T02:52:35.279Z,9.50
2022-09-25T02:55:41.735Z,10.00
2022-09-25T02:58:51.179Z,9.47
2022-09-25T03:01:55.195Z,9.77
2022-09-25T03:05:01.927Z,9.80
2022-09-25T03:08:23.152Z,10.30
2022-09-25T03:11:27.784Z,10.53
2022-09-25T03:14:30.730Z,10.83
2022-09-25T03:17:33.790Z,10.87
2022-09-25T03:20:38.556Z,10.87
2022-09-25T03:23:41.650Z,10.90
2022-09-25T03:26:44.991Z,11.30
2022-09-25T03:29:48.672Z,11.40
2022-09-25T03:32:51.701Z,11.67
2022-09-25T03:36:08.158Z,11.83
2022-09-25T03:39:11.230Z,12.03
2022-09-25T03:42:14.842Z,12.30
2022-09-25T03:45:17.969Z,12.00
2022-09-25T03:48:21.411Z,12.87
2022-09-25T03:51:27.340Z,12.57
2022-09-25T03:54:30.349Z,12.83
2022-09-25T03:57:33.793Z,14.20
2022-09-25T04:00:36.806Z,14.23
2022-09-25T04:03:40.357Z,15.90
2022-09-25T04:06:44.751Z,16.57
2022-09-25T04:09:47.671Z,16.80
2022-09-25T04:12:55.514Z,16.60
2022-09-25T04:15:59.520Z,16.53
2022-09-25T04:19:02.479Z,17.47
2022-09-25T04:22:06.835Z,17.00
2022-09-25T04:25:10.610Z,17.90
2022-09-25T04:28:13.883Z,17.47
2022-09-25T04:31:16.879Z,16.87
2022-09-25T04:34:18.834Z,17.97
2022-09-25T04:37:26.512Z,18.10
2022-09-25T04:40:29.743Z,18.17
2022-09-25T04:43:34.164Z,19.57
2022-09-25T04:46:36.894Z,18.30
2022-09-25T04:49:39.638Z,19.30
2022-09-25T04:52:43.952Z,19.13
2022-09-25T04:55:48.096Z,18.20
2022-09-25T04:58:50.802Z,18.63
2022-09-25T05:01:54.215Z,19.87
2022-09-25T05:04:56.994Z,18.30
2022-09-25T05:08:02.924Z,18.80
2022-09-25T05:11:05.813Z,18.83
2022-09-25T05:14:09.389Z,18.77
2022-09-25T05:17:12.592Z,17.50
2022-09-25T05:20:15.684Z,17.90
2022-09-25T05:23:19.799Z,19.37
2022-09-25T05:26:22.752Z,18.17
2022-09-25T05:29:25.571Z,19.63
2022-09-25T05:32:28.647Z,17.07
2022-09-25T05:35:33.165Z,16.43
2022-09-25T05:38:39.541Z,16.73
2022-09-25T05:41:42.234Z,17.27
2022-09-25T05:44:44.863Z,17.03
2022-09-25T05:47:48.163Z,15.70
2022-09-25T05:50:52.738Z,14.97
2022-09-25T05:53:56.808Z,13.97
2022-09-25T05:56:59.769Z,16.20
2022-09-25T06:00:03.146Z,16.77
2022-09-25T06:03:06.555Z,16.67
2022-09-25T06:06:09.771Z,17.57
2022-09-25T06:09:13.738Z,16.87
2022-09-25T06:12:16.679Z,18.37
2022-09-25T06:15:19.358Z,17.80
2022-09-25T06:18:24.259Z,17.40
2022-09-25T06:21:27.270Z,17.07
2022-09-25T06:24:31.617Z,16.53
2022-09-25T06:27:34.849Z,16.47
2022-09-25T06:30:38.700Z,18.00
2022-09-25T06:33:42.266Z,19.00
2022-09-25T06:36:45.187Z,16.97
2022-09-25T06:39:49.195Z,17.33
2022-09-25T06:42:56.955Z,16.60
2022-09-25T06:46:04.003Z,16.40
2022-09-25T06:49:07.234Z,17.13
2022-09-25T06:52:10.280Z,16.70
2022-09-25T06:55:14.883Z,16.70
2022-09-25T06:58:20.682Z,16.53
2022-09-25T07:01:23.356Z,17.27
2022-09-25T07:04:26.425Z,18.17
2022-09-25T07:07:30.076Z,18.73
2022-09-25T07:10:34.017Z,15.60
2022-09-25T07:13:37.900Z,15.10
2022-09-25T07:16:40.561Z,16.50
2022-09-25T07:19:43.621Z,21.53
2022-09-25T07:22:46.206Z,18.07
2022-09-25T07:25:50.929Z,20.10
2022-09-25T07:28:56.169Z,16.27
2022-09-25T07:32:00.281Z,16.33
2022-09-25T07:35:03.153Z,15.43
2022-09-25T07:38:06.275Z,16.13
2022-09-25T07:41:13.454Z,17.17
2022-09-25T07:44:37.937Z,17.23
2022-09-25T07:47:39.583Z,49.40
2022-09-25T07:50:42.556Z,34.83
2022-09-25T07:53:46.171Z,15.00
2022-09-25T07:56:50.414Z,12.70
2022-09-25T07:59:53.457Z,11.93
2022-09-25T08:02:58.003Z,14.73
2022-09-25T08:06:02.652Z,13.30
2022-09-25T08:09:10.108Z,13.63
2022-09-25T08:12:15.555Z,11.97
2022-09-25T08:15:18.539Z,12.33
2022-09-25T08:18:21.700Z,10.67
2022-09-25T08:21:24.387Z,10.53
2022-09-25T08:24:27.466Z,10.43
2022-09-25T08:27:32.012Z,11.13
2022-09-25T08:30:35.161Z,11.63
2022-09-25T08:33:38.146Z,9.57
2022-09-25T08:36:40.822Z,9.03
2022-09-25T08:39:43.970Z,9.37
2022-09-25T08:42:51.653Z,11.87
2022-09-25T08:46:13.975Z,10.57
2022-09-25T08:49:20.500Z,10.90
2022-09-25T08:52:23.417Z,10.23
2022-09-25T08:55:50.053Z,9.97
2022-09-25T08:59:02.524Z,8.60
2022-09-25T09:02:13.854Z,6.90
2022-09-25T09:05:21.569Z,6.57
2022-09-25T09:08:29.131Z,5.50
2022-09-25T09:11:37.580Z,5.80
2022-09-25T09:14:46.113Z,4.80
2022-09-25T09:17:48.848Z,4.70
2022-09-25T09:20:54.714Z,4.70
2022-09-25T09:24:06.214Z,4.13
2022-09-25T09:27:23.349Z,4.73
2022-09-25T09:30:36.690Z,3.93
2022-09-25T09:33:52.371Z,4.70
2022-09-25T09:37:02.197Z,3.67
2022-09-25T09:40:19.974Z,3.70
2022-09-25T09:43:37.010Z,3.90
2022-09-25T09:46:50.005Z,3.90
2022-09-25T09:49:59.004Z,20.57
2022-09-25T09:53:04.743Z,4.30
2022-09-25T09:56:14.850Z,3.50
2022-09-25T09:59:22.936Z,4.07
2022-09-25T10:02:34.502Z,4.00
2022-09-25T10:05:40.664Z,3.47
2022-09-25T10:08:43.797Z,4.00
2022-09-25T10:11:50.429Z,4.10
2022-09-25T10:14:53.479Z,4.50
2022-09-25T10:18:00.763Z,4.83
2022-09-25T10:21:11.077Z,3.30
2022-09-25T10:24:49.781Z,3.60
2022-09-25T10:27:52.865Z,3.43
2022-09-25T10:30:56.958Z,3.33
2022-09-25T10:34:04.313Z,3.30
2022-09-25T10:37:20.211Z,2.70
2022-09-25T10:40:28.155Z,2.60
2022-09-25T10:43:30.936Z,3.30
2022-09-25T10:46:53.400Z,3.30
2022-09-25T10:50:13.540Z,3.40
2022-09-25T10:53:30.997Z,3.50
2022-09-25T10:56:39.101Z,3.30
2022-09-25T10:59:48.879Z,2.97
2022-09-25T11:02:56.698Z,3.80
2022-09-25T11:06:05.632Z,3.30
2022-09-25T11:09:14.406Z,4.20
2022-09-25T11:12:23.751Z,4.63
2022-09-25T11:15:28.720Z,5.07
2022-09-25T11:18:40.939Z,5.73
2022-09-25T11:21:59.911Z,5.37
2022-09-25T11:25:12.565Z,5.57
2022-09-25T11:28:28.908Z,5.03
2022-09-25T11:31:38.027Z,5.50
2022-09-25T11:35:06.030Z,5.10
2022-09-25T11:38:43.702Z,5.30
2022-09-25T11:41:49.431Z,5.60
2022-09-25T11:44:59.350Z,5.40
2022-09-25T11:48:07.866Z,5.53
2022-09-25T11:51:19.874Z,5.43
2022-09-25T11:54:36.717Z,5.70
2022-09-25T11:57:49.620Z,5.00
2022-09-25T12:01:01.266Z,5.57
2022-09-25T12:04:30.225Z,5.23
2022-09-25T12:07:47.578Z,5.50
2022-09-25T12:11:01.814Z,4.33
2022-09-25T12:14:14.093Z,5.33
2022-09-25T12:17:24.037Z,4.70
2022-09-25T12:20:33.815Z,6.10
2022-09-25T12:23:44.855Z,4.83
2022-09-25T12:26:57.337Z,5.37
2022-09-25T12:30:12.235Z,5.20
2022-09-25T12:33:32.634Z,5.07
2022-09-25T12:36:41.570Z,5.73
2022-09-25T12:39:51.707Z,6.00
2022-09-25T12:43:03.169Z,5.60
2022-09-25T12:46:12.284Z,5.50
2022-09-25T12:49:21.424Z,5.27
2022-09-25T12:52:29.701Z,5.63
2022-09-25T12:55:39.209Z,5.70
2022-09-25T12:58:57.664Z,5.70
2022-09-25T13:02:06.200Z,5.27
2022-09-25T13:05:18.144Z,5.33
2022-09-25T13:08:28.763Z,5.20
2022-09-25T13:11:39.635Z,5.23
2022-09-25T13:14:52.459Z,5.20
2022-09-25T13:17:55.968Z,5.10
2022-09-25T13:21:00.908Z,5.23
2022-09-25T13:24:09.410Z,4.90
2022-09-25T13:27:19.122Z,5.40
2022-09-25T13:30:26.532Z,5.13
2022-09-25T13:33:30.105Z,5.90
2022-09-25T13:36:40.632Z,6.43
2022-09-25T13:40:05.083Z,6.60
2022-09-25T13:43:20.963Z,6.70
2022-09-25T13:46:25.804Z,7.20
2022-09-25T13:49:35.746Z,6.90
2022-09-25T13:53:16.086Z,6.70
2022-09-25T13:56:28.093Z,6.80
2022-09-25T13:59:39.393Z,7.70
2022-09-25T14:02:47.640Z,7.37
2022-09-25T14:05:50.747Z,7.73
2022-09-25T14:08:56.836Z,4.00
2022-09-25T14:12:08.458Z,3.83
2022-09-25T14:15:21.925Z,8.10
2022-09-25T14:18:37.373Z,8.03
2022-09-25T14:21:40.373Z,7.50
2022-09-25T14:24:45.597Z,7.83
2022-09-25T14:27:52.760Z,8.40
2022-09-25T14:31:08.212Z,7.00
2022-09-25T14:34:53.271Z,7.47
2022-09-25T14:38:20.488Z,6.70
2022-09-25T14:41:44.306Z,7.30
2022-09-25T14:45:14.397Z,6.73
2022-09-25T14:48:20.218Z,6.07
2022-09-25T14:51:27.680Z,6.07
2022-09-25T14:54:36.494Z,6.83
2022-09-25T14:57:39.841Z,6.30
2022-09-25T15:00:47.724Z,6.00
2022-09-25T15:03:51.215Z,6.70
2022-09-25T15:07:02.651Z,6.57
2022-09-25T15:10:28.621Z,7.23
2022-09-25T15:13:34.462Z,7.60
2022-09-25T15:16:56.989Z,8.30
2022-09-25T15:20:02.497Z,7.47
2022-09-25T15:23:10.386Z,15.30
2022-09-25T15:26:18.649Z,5.87
2022-09-25T15:29:23.839Z,5.33
2022-09-25T15:32:28.547Z,6.77
2022-09-25T15:35:32.631Z,5.20
2022-09-25T15:38:39.895Z,5.77
2022-09-25T15:41:44.501Z,4.87
2022-09-25T15:44:47.815Z,4.80
2022-09-25T15:47:54.972Z,4.60
2022-09-25T15:51:00.160Z,5.00
2022-09-25T15:54:06.435Z,7.80
2022-09-25T15:57:13.382Z,10.87
2022-09-25T16:00:39.624Z,5.10
2022-09-25T16:04:06.961Z,4.60
2022-09-25T16:07:28.306Z,5.70
2022-09-25T16:10:34.466Z,4.30
2022-09-25T16:13:40.514Z,4.63
2022-09-25T16:16:49.846Z,4.17
2022-09-25T16:20:05.172Z,5.30
2022-09-25T16:23:22.933Z,4.40
2022-09-25T16:26:31.322Z,4.03
2022-09-25T16:29:39.117Z,3.80
2022-09-25T16:32:47.201Z,4.43
2022-09-25T16:36:10.613Z,3.57
2022-09-25T16:39:23.085Z,3.50
2022-09-25T16:42:39.547Z,3.63
2022-09-25T16:45:59.008Z,3.60
2022-09-25T16:49:04.806Z,3.07
2022-09-25T16:52:08.921Z,3.00
2022-09-25T16:55:21.423Z,2.90
2022-09-25T16:58:25.624Z,3.47
2022-09-25T17:01:29.488Z,3.00
2022-09-25T17:04:35.972Z,3.90
2022-09-25T17:07:38.668Z,3.70
2022-09-25T17:10:41.919Z,4.10
2022-09-25T17:13:46.743Z,3.97
2022-09-25T17:16:49.538Z,3.53
2022-09-25T17:19:52.253Z,3.20
2022-09-25T17:22:55.874Z,4.00
2022-09-25T17:26:03.708Z,3.47
2022-09-25T17:29:07.964Z,3.60
2022-09-25T17:32:14.090Z,4.33
2022-09-25T17:35:29.766Z,3.70
2022-09-25T17:38:34.042Z,3.93
2022-09-25T17:41:38.373Z,6.13
2022-09-25T17:44:43.797Z,4.80
2022-09-25T17:47:46.622Z,5.53
2022-09-25T17:50:49.295Z,4.77
2022-09-25T17:53:53.935Z,6.87
2022-09-25T17:56:57.039Z,7.67
2022-09-25T18:00:01.671Z,19.37
2022-09-25T18:03:04.549Z,10.97
2022-09-25T18:06:07.426Z,3.47
2022-09-25T18:09:10.211Z,4.50
2022-09-25T18:12:12.943Z,3.10
2022-09-25T18:15:18.411Z,3.47
2022-09-25T18:18:21.594Z,3.30
2022-09-25T18:21:41.724Z,3.10
2022-09-25T18:24:45.032Z,3.60
2022-09-25T18:27:48.099Z,2.97
2022-09-25T18:30:52.548Z,3.13
2022-09-25T18:33:56.097Z,3.20
2022-09-25T18:36:58.898Z,3.40
2022-09-25T18:40:02.219Z,3.67
2022-09-25T18:43:04.903Z,3.23
2022-09-25T18:46:09.530Z,3.40
2022-09-25T18:49:12.610Z,3.57
2022-09-25T18:52:15.782Z,3.70
2022-09-25T18:55:18.607Z,3.53
2022-09-25T18:58:21.578Z,3.40
2022-09-25T19:01:26.071Z,3.67
2022-09-25T19:04:28.945Z,2.97
2022-09-25T19:07:32.050Z,3.70
2022-09-25T19:10:35.259Z,3.60
2022-09-25T19:13:38.235Z,3.30
2022-09-25T19:16:42.633Z,3.63
2022-09-25T19:19:45.759Z,3.27
2022-09-25T19:22:48.632Z,3.60
2022-09-25T19:25:55.793Z,3.40
2022-09-25T19:28:58.483Z,3.60
2022-09-25T19:32:03.932Z,3.37
2022-09-25T19:35:07.303Z,3.33
2022-09-25T19:38:12.760Z,3.63
2022-09-25T19:41:17.888Z,3.40
2022-09-25T19:44:21.220Z,3.37
2022-09-25T19:47:25.235Z,3.40
2022-09-25T19:50:28.145Z,3.40
2022-09-25T19:53:31.361Z,3.70
2022-09-25T19:56:34.382Z,3.87
2022-09-25T19:59:37.394Z,3.83
2022-09-25T20:02:46.105Z,3.43
2022-09-25T20:05:49.652Z,3.80
2022-09-25T20:08:57.453Z,3.70
2022-09-25T20:12:00.578Z,6.37
2022-09-25T20:15:03.626Z,3.97
2022-09-25T20:18:07.868Z,3.93
2022-09-25T20:21:11.170Z,4.23
2022-09-25T20:24:14.077Z,4.33
2022-09-25T20:27:21.000Z,3.87
2022-09-25T20:30:25.711Z,3.77
2022-09-25T20:33:34.694Z,3.77
2022-09-25T20:36:39.147Z,3.90
2022-09-25T20:39:41.891Z,3.80
2022-09-25T20:42:44.634Z,3.90
2022-09-25T20:45:57.101Z,3.83
2022-09-25T20:49:02.085Z,4.30
2022-09-25T20:52:05.155Z,4.17
2022-09-25T20:55:08.487Z,3.67
2022-09-25T20:58:11.648Z,3.97
2022-09-25T21:01:17.510Z,4.00
2022-09-25T21:04:21.634Z,4.23
2022-09-25T21:07:26.392Z,3.93
2022-09-25T21:10:29.590Z,4.20
2022-09-25T21:13:34.010Z,4.93
2022-09-25T21:16:37.037Z,4.27
2022-09-25T21:19:41.529Z,4.53
2022-09-25T21:22:44.263Z,4.03
2022-09-25T21:25:46.977Z,4.10
2022-09-25T21:28:52.532Z,4.40
2022-09-25T21:31:55.701Z,4.30
2022-09-25T21:35:00.069Z,4.20
2022-09-25T21:38:03.975Z,4.67
2022-09-25T21:41:09.352Z,4.53
2022-09-25T21:44:14.848Z,4.70
2022-09-25T21:47:17.995Z,3.83
2022-09-25T21:50:22.048Z,4.40
2022-09-25T21:53:26.122Z,4.30
2022-09-25T21:56:31.500Z,4.10
2022-09-25T21:59:34.536Z,4.67
2022-09-25T22:02:38.500Z,4.60
2022-09-25T22:05:42.615Z,4.77
2022-09-25T22:08:47.740Z,5.07
2022-09-25T22:11:51.484Z,4.80
2022-09-25T22:14:54.440Z,5.30
2022-09-25T22:17:57.107Z,5.13
2022-09-25T22:21:01.775Z,4.70
2022-09-25T22:24:04.976Z,5.03
2022-09-25T22:27:07.754Z,4.90
2022-09-25T22:30:11.851Z,5.33
2022-09-25T22:33:14.846Z,5.77
2022-09-25T22:36:19.217Z,5.40
2022-09-25T22:39:22.330Z,4.93
2022-09-25T22:42:25.251Z,5.57
2022-09-25T22:45:28.188Z,5.97
2022-09-25T22:48:31.557Z,5.90
2022-09-25T22:51:36.062Z,5.43
2022-09-25T22:54:39.010Z,5.17
2022-09-25T22:57:41.714Z,5.40
2022-09-25T23:00:45.107Z,5.57
2022-09-25T23:03:48.234Z,5.83
2022-09-25T23:06:52.904Z,5.43
2022-09-25T23:09:55.797Z,5.80
2022-09-25T23:12:58.838Z,6.70
2022-09-25T23:16:05.713Z,6.97
2022-09-25T23:19:08.441Z,6.93
2022-09-25T23:22:12.563Z,6.40
2022-09-25T23:25:15.796Z,6.00
2022-09-25T23:28:18.607Z,6.07
2022-09-25T23:31:22.372Z,5.93
2022-09-25T23:34:25.634Z,6.00
2022-09-25T23:37:30.511Z,5.67
2022-09-25T23:40:33.319Z,6.00
2022-09-25T23:43:35.991Z,6.30
2022-09-25T23:46:40.882Z,6.50
2022-09-25T23:49:44.444Z,6.10
2022-09-25T23:52:48.489Z,5.00
2022-09-25T23:55:51.660Z,5.33
2022-09-25T23:58:56.170Z,5.77
